WetterOnline ( https://www.wetteronline.de )

Wetter aktuell Letschin

Aktuelles Wetter: Manschnow (16m)

6-stündlich | Neueste Meldungen
Ortszeit Temperatur Wetter
Di, 24.05. 8:00 14.8° C bedeckt
Di, 24.05. 2:00 17.1° C wolkig
Mo, 23.05. 20:00 19.4° C wolkig
Mo, 23.05. 14:00 21.1° C wolkig
Mo, 23.05. 8:00 11.8° C leicht bewölkt
Mo, 23.05. 2:00 9.6° C wolkig
So, 22.05. 20:00 17.2° C wolkenlos
So, 22.05. 14:00 17.1° C bewölkt
Ortszeit Temperatur Wetter
Di, 24.05. 11:30 19.7° C wolkig
Di, 24.05. 11:20 19.7° C wolkig
Di, 24.05. 11:10 19.1° C wolkig
Di, 24.05. 11:00 19.3° C wolkig
Di, 24.05. 10:50 19.3° C wolkig
Di, 24.05. 10:40 18.5° C bewölkt
Di, 24.05. 10:30 17.2° C bedeckt
Di, 24.05. 10:00 17.0° C bedeckt
Di, 24.05. 9:30 15.9° C Sprühregen
Di, 24.05. 9:00 14.7° C leichter Regen
Di, 24.05. 8:30 15.3° C bedeckt
Ortszeit Relative Feuchte Sichtweite
Di, 24.05. 8:00 76% -
Di, 24.05. 2:00 50% 55 km
Mo, 23.05. 20:00 43% 50 km
Mo, 23.05. 14:00 38% 65 km
Mo, 23.05. 8:00 84% 35 km
Mo, 23.05. 2:00 92% 29 km
So, 22.05. 20:00 58% 65 km
So, 22.05. 14:00 60% 55 km
Ortszeit Relative Feuchte Sichtweite
Di, 24.05. 11:30 68% 40 km
Di, 24.05. 11:20 68% -
Di, 24.05. 11:10 73% -
Di, 24.05. 11:00 73% 35 km
Di, 24.05. 10:50 73% -
Di, 24.05. 10:40 81% -
Di, 24.05. 10:30 85% 30 km
Di, 24.05. 10:00 87% 30 km
Di, 24.05. 9:30 94% 24 km
Di, 24.05. 9:00 90% 6 km
Di, 24.05. 8:30 77% 45 km
Ortszeit Niederschlagsmenge Niederschlagsart
Di, 24.05. 8:00 0.2 l/m2 in 12 Std. Regen
Di, 24.05. 2:00 0.1 l/m2 in 6 Std. Regen
Mo, 23.05. 20:00 0.0 l/m2 in 12 Std. -
Mo, 23.05. 14:00 0.0 l/m2 in 6 Std. -
Mo, 23.05. 8:00 0.0 l/m2 in 12 Std. -
Mo, 23.05. 2:00 0.0 l/m2 in 6 Std. -
So, 22.05. 20:00 0.0 l/m2 in 12 Std. -
So, 22.05. 14:00 0.0 l/m2 in 6 Std. -
Ortszeit Niederschlagsmenge Niederschlagsart
Di, 24.05. 11:30 0.0 l/m2 in 1 Std. -
Di, 24.05. 11:20 keine Meldung -
Di, 24.05. 11:10 keine Meldung -
Di, 24.05. 11:00 0.0 l/m2 in 1 Std. Regen
Di, 24.05. 10:50 keine Meldung -
Di, 24.05. 10:40 keine Meldung -
Di, 24.05. 10:30 0.0 l/m2 in 1 Std. -
Di, 24.05. 10:00 0.3 l/m2 in 1 Std. Regen
Di, 24.05. 9:30 0.3 l/m2 in 1 Std. -
Di, 24.05. 9:00 0.1 l/m2 in 1 Std. Regen
Di, 24.05. 8:30 0.1 l/m2 in 1 Std. Schneeregen
Ortszeit Stärke Spitze Richtung
km/h Bft. km/h Grad Sektor
Di, 24.05. 8:00 11 2 32 160° S
Di, 24.05. 2:00 20 4 37 130° SO
Mo, 23.05. 20:00 17 3 37 120° SO
Mo, 23.05. 14:00 19 3 33 110° O
Mo, 23.05. 8:00 9 2 13 100° O
Mo, 23.05. 2:00 7 2 14 80° O
So, 22.05. 20:00 7 2 30 30° NO
So, 22.05. 14:00 15 3 31 270° W
Ortszeit Stärke Spitze Richtung
km/h Bft. km/h Grad Sektor
Di, 24.05. 11:30 18 3 32 260° W
Di, 24.05. 11:20 18 3 - 260° W
Di, 24.05. 11:10 18 3 - 270° W
Di, 24.05. 11:00 13 3 20 270° W
Di, 24.05. 10:50 13 3 - 270° W
Di, 24.05. 10:40 11 2 - 280° W
Di, 24.05. 10:30 11 2 22 270° W
Di, 24.05. 10:00 11 2 22 260° W
Di, 24.05. 9:30 7 2 17 240° SW
Di, 24.05. 9:00 11 2 20 210° SW
Di, 24.05. 8:30 9 2 19 180° S
Ortszeit Untergrenze Bedeckung Gattung
total tief tief mittel hoch
Di, 24.05. 8:00 690 m 8/8 8/8 - - -
Di, 24.05. 2:00 1800 m 8/8 1/8 - - -
Mo, 23.05. 20:00 5400 m 7/8 4/8 - - -
Mo, 23.05. 14:00 6600 m 7/8 7/8 - - -
Mo, 23.05. 8:00 8700 m 4/8 0/8 - - -
Mo, 23.05. 2:00 9000 m 8/8 0/8 - - -
So, 22.05. 20:00 - 0/8 0/8 - - -
So, 22.05. 14:00 1020 m 8/8 6/8 - - -
Ortszeit Bedeckungsgrad in Achtel und Wolkenuntergrenze
Di, 24.05. 11:30 1(540m) 5(1350m) 6(6900m)
Di, 24.05. 11:20 1(540m) 5(1350m) 6(6900m)
Di, 24.05. 11:10 6
Di, 24.05. 11:00 5(480m) 5(870m) 5(990m)
Di, 24.05. 10:50 5(480m) 5(870m) 5(990m)
Di, 24.05. 10:40 7
Di, 24.05. 10:30 6(510m) 7(660m) 8(960m)
Di, 24.05. 10:00 7(510m) 8(660m)
Di, 24.05. 9:30 1(330m) 7(480m)
Di, 24.05. 9:00 6(390m) 7(600m)
Di, 24.05. 8:30 8(630m)
Ortszeit Luftdruck NN (hPa) Tendenz (hPa in 3 Std.)
Di, 24.05. 8:00 1002 + 0,3
Di, 24.05. 2:00 1003 - 2,2
Mo, 23.05. 20:00 1005 - 2,4
Mo, 23.05. 14:00 1009 - 2,3
Mo, 23.05. 8:00 1014 - 0,2
Mo, 23.05. 2:00 1015 - 0,7
So, 22.05. 20:00 1015 - 0,2
So, 22.05. 14:00 1016 - 0,3
Ortszeit Luftdruck NN (hPa) Tendenz (hPa in 3 Std.)
Di, 24.05. 11:30 1004 + 1,7
Di, 24.05. 11:20 1004 keine Meldung
Di, 24.05. 11:10 1004 keine Meldung
Di, 24.05. 11:00 1004 + 1,9
Di, 24.05. 10:50 1004 keine Meldung
Di, 24.05. 10:40 1004 keine Meldung
Di, 24.05. 10:30 1004 + 2,0
Di, 24.05. 10:00 1004 + 1,6
Di, 24.05. 9:30 1003 + 1,4
Di, 24.05. 9:00 1003 + 1,3
Di, 24.05. 8:30 1003 + 0,8
Ortszeit Schneehöhe (cm)
Di, 24.05. 8:00 0
Di, 24.05. 2:00 0
Mo, 23.05. 20:00 0
Mo, 23.05. 14:00 0
Mo, 23.05. 8:00 0
Mo, 23.05. 2:00 0
So, 22.05. 20:00 0
So, 22.05. 14:00 0
Ortszeit Schneehöhe (cm)
Di, 24.05. 11:30 0
Di, 24.05. 11:20 0
Di, 24.05. 11:10 0
Di, 24.05. 11:00 0
Di, 24.05. 10:50 0
Di, 24.05. 10:40 0
Di, 24.05. 10:30 0
Di, 24.05. 10:00 0
Di, 24.05. 9:30 0
Di, 24.05. 9:00 0
Di, 24.05. 8:30 0
Link zu dieser Seite / Seite empfehlen

Das Wetter in ...